createdAt,value
2023-12-09T00:02:51.745Z,29.8
2023-12-09T00:18:33.896Z,30.6
2023-12-09T00:34:16.419Z,31.1
2023-12-09T00:49:59.620Z,29.8
2023-12-09T01:05:42.109Z,30.4
2023-12-09T01:21:24.957Z,31.1
2023-12-09T01:37:07.722Z,30.5
2023-12-09T01:52:50.764Z,30.5
2023-12-09T02:08:33.362Z,29.7
2023-12-09T02:24:16.294Z,28.2
2023-12-09T02:39:59.185Z,27.8
2023-12-09T02:55:42.034Z,27.6
2023-12-09T03:11:24.723Z,29
2023-12-09T03:27:07.176Z,26.5
2023-12-09T03:42:50.460Z,26.8
2023-12-09T03:58:33.302Z,27.9
2023-12-09T04:14:16.400Z,29.8
2023-12-09T04:29:59.600Z,29.5
2023-12-09T04:45:42.174Z,32.2
2023-12-09T05:01:25.498Z,32.8
2023-12-09T05:17:08.267Z,34.59
2023-12-09T05:32:50.999Z,34.09
2023-12-09T05:48:33.412Z,35
2023-12-09T06:04:16.047Z,34.3
2023-12-09T06:19:59.277Z,33.4
2023-12-09T06:35:42.432Z,35.9
2023-12-09T06:51:25.308Z,34.4
2023-12-09T07:07:07.947Z,36.3
2023-12-09T07:22:50.497Z,35.5
2023-12-09T07:38:32.923Z,33.7
2023-12-09T07:54:15.943Z,33.2
2023-12-09T08:09:58.815Z,30
2023-12-09T08:25:41.448Z,28.1
2023-12-09T08:57:06.795Z,22.4
2023-12-09T09:12:50.044Z,22.1
2023-12-09T09:28:32.811Z,20.29
2023-12-09T09:44:15.712Z,18.4
2023-12-09T09:59:58.317Z,16.7
2023-12-09T10:15:40.679Z,15.1
2023-12-09T10:31:23.639Z,13.3
2023-12-09T10:47:06.618Z,11.8
2023-12-09T11:02:49.099Z,11.5
2023-12-09T11:18:31.536Z,10.7
2023-12-09T11:34:14.007Z,11.2
2023-12-09T11:49:56.756Z,11.2
2023-12-09T12:05:39.323Z,11.1
2023-12-09T12:21:22.477Z,9.5
2023-12-09T12:37:05.180Z,9.7
2023-12-09T12:52:48.069Z,9
2023-12-09T13:08:30.483Z,9.7
2023-12-09T13:24:12.843Z,8.3
2023-12-09T13:39:55.903Z,9
2023-12-09T13:55:38.233Z,9.5
2023-12-09T14:11:21.348Z,9.2
2023-12-09T14:27:04.504Z,9.8
2023-12-09T14:42:46.839Z,10.6
2023-12-09T14:58:30.092Z,11.9
2023-12-09T15:14:12.749Z,11.5
2023-12-09T15:29:55.926Z,11.8
2023-12-09T15:45:39.094Z,13.6
2023-12-09T15:46:26.556Z,15.4
2023-12-09T16:02:09.361Z,16.6
2023-12-09T16:17:51.763Z,15.1
2023-12-09T16:33:34.610Z,15.2
2023-12-09T16:49:17.216Z,15.8
2023-12-09T17:05:00.214Z,15.2
2023-12-09T17:20:42.569Z,14.1
2023-12-09T17:36:25.287Z,15.2
2023-12-09T17:52:08.476Z,14.9
2023-12-09T18:07:50.874Z,15.8
2023-12-09T18:23:33.745Z,15.4
2023-12-09T18:39:16.476Z,15.4
2023-12-09T18:54:58.789Z,15.4
2023-12-09T19:10:41.881Z,15.7
2023-12-09T19:26:24.318Z,17.4
2023-12-09T19:42:07.463Z,14.8
2023-12-09T19:57:49.990Z,16.1
2023-12-09T20:13:32.706Z,14.6
2023-12-09T20:29:15.615Z,14.8
2023-12-09T20:44:58.492Z,13.1
2023-12-09T21:16:24.001Z,10.6
2023-12-09T21:32:06.695Z,11.3
2023-12-09T21:47:49.066Z,10.4
2023-12-09T22:03:31.642Z,10.6
2023-12-09T22:19:14.642Z,10.4
2023-12-09T22:34:57.645Z,10.1
2023-12-09T22:50:40.117Z,8.3
2023-12-09T23:06:23.048Z,8.2
2023-12-09T23:22:06.324Z,8.5
2023-12-09T23:37:49.329Z,9.2
2023-12-09T23:53:32.356Z,9.89
